Stolt Ami — 3EAZ5 — position and weather

sailwx.info

Track history (hours):
 
Tides and Currents Weather Stations Pressure Air Temp Water Temp Dewpoint Dewpoint Depression Visibility Wind Speed Wind Dir Waves Ship Positions

Stolt Ami

Last reported at 2015-Apr-07 17:33 UTC. Time now 2015-Apr-18 16:47 UTC.
Position N 29°26' W 094°50'.
Warning: this ship's position is 10 days out of date.

Length 143 m; draft 9.1 m.

Type: Ship (hazmat cat B). MMSI: 371392514.

Date/timePositionNaut miles runAvg speedWind from/ knotsBaromVisibWave heightAir tempDewpointWater temp
2015-Apr-07 17:33N 29°26' W 094°50'10 9.3
2015-Apr-07 16:31N 29°34' W 094°55'9 9.1
2015-Apr-07 15:33N 29°42' W 094°60'6 5.7
2015-Apr-07 14:33N 29°46' W 095°05'3 3.0
2015-Apr-07 13:32N 29°44' W 095°08'0 0.0
2015-Apr-07 11:26N 29°44' W 095°08'0 0.0
2015-Apr-07 10:19N 29°44' W 095°08'0 0.0
2015-Apr-07 02:07N 29°44' W 095°08'0 0.0
2015-Apr-07 01:31N 29°44' W 095°08'0 0.0
2015-Apr-07 00:19N 29°44' W 095°08'0 0.0
2015-Apr-06 23:31N 29°44' W 095°08'0 0.0
2015-Apr-06 19:31N 29°44' W 095°08'0 0.0
2015-Apr-06 18:32N 29°44' W 095°08'0 0.0
2015-Apr-06 17:32N 29°44' W 095°08'0 0.0
2015-Apr-06 16:30N 29°44' W 095°08'0 0.0
2015-Apr-06 15:33N 29°44' W 095°08'0 0.0
2015-Apr-06 14:33N 29°44' W 095°08'0 0.0
2015-Apr-06 13:33N 29°44' W 095°08'0 0.0
2015-Apr-05 17:33N 29°44' W 095°08'0 0.0
2015-Apr-05 15:33N 29°44' W 095°08'0 0.0
2015-Apr-05 14:33N 29°44' W 095°08'0 0.0
2015-Apr-05 13:33N 29°44' W 095°08'0 0.0
2015-Apr-05 12:33N 29°44' W 095°08'4 3.6
2015-Apr-05 11:33N 29°44' W 095°04'8 8.3
2015-Apr-05 10:33N 29°38' W 094°58'1110.6
2015-Apr-05 09:33N 29°29' W 094°52'  
2015-Mar-30 14:13N 29°21' W 094°44'0 0.0
2015-Mar-30 03:07N 29°21' W 094°44'0 0.1
2015-Mar-30 02:19N 29°21' W 094°44'  
Track history (hours):
 
Tides and Currents Weather Stations Pressure Air Temp Water Temp Dewpoint Dewpoint Depression Visibility Wind Speed Wind Dir Waves Ship Positions

Stolt Ami

Last reported at 2015-Apr-07 17:33 UTC. Time now 2015-Apr-18 16:47 UTC.
Position N 29°26' W 094°50'.
Warning: this ship's position is 10 days out of date.

Length 143 m; draft 9.1 m.

Type: Ship (hazmat cat B). MMSI: 371392514.

Date/timePositionNaut miles runAvg speedWind from/ knotsBaromVisibWave heightAir tempDewpointWater temp
2015-Apr-07 17:33N 29°26' W 094°50'10 9.3
2015-Apr-07 16:31N 29°34' W 094°55'9 9.1
2015-Apr-07 15:33N 29°42' W 094°60'6 5.7
2015-Apr-07 14:33N 29°46' W 095°05'3 3.0
2015-Apr-07 13:32N 29°44' W 095°08'0 0.0
2015-Apr-07 11:26N 29°44' W 095°08'0 0.0
2015-Apr-07 10:19N 29°44' W 095°08'0 0.0
2015-Apr-07 02:07N 29°44' W 095°08'0 0.0
2015-Apr-07 01:31N 29°44' W 095°08'0 0.0
2015-Apr-07 00:19N 29°44' W 095°08'0 0.0
2015-Apr-06 23:31N 29°44' W 095°08'0 0.0
2015-Apr-06 19:31N 29°44' W 095°08'0 0.0
2015-Apr-06 18:32N 29°44' W 095°08'0 0.0
2015-Apr-06 17:32N 29°44' W 095°08'0 0.0
2015-Apr-06 16:30N 29°44' W 095°08'0 0.0
2015-Apr-06 15:33N 29°44' W 095°08'0 0.0
2015-Apr-06 14:33N 29°44' W 095°08'0 0.0
2015-Apr-06 13:33N 29°44' W 095°08'0 0.0
2015-Apr-05 17:33N 29°44' W 095°08'0 0.0
2015-Apr-05 15:33N 29°44' W 095°08'0 0.0
2015-Apr-05 14:33N 29°44' W 095°08'0 0.0
2015-Apr-05 13:33N 29°44' W 095°08'0 0.0
2015-Apr-05 12:33N 29°44' W 095°08'4 3.6
2015-Apr-05 11:33N 29°44' W 095°04'8 8.3
2015-Apr-05 10:33N 29°38' W 094°58'1110.6
2015-Apr-05 09:33N 29°29' W 094°52'  
2015-Mar-30 14:13N 29°21' W 094°44'0 0.0
2015-Mar-30 03:07N 29°21' W 094°44'0 0.1
2015-Mar-30 02:19N 29°21' W 094°44'  

Dump ship's entire track history